Decoded Metar for KUKF (WILKESBORO in NC, USA) (IATA:UKF) | Meteo·Mobile Aviation Weather
aviador You're here:

KUKF Decoded Metar

WILKESBORO in NC, USA
Report Time2019-06-18 13:40:00
UTC Time2019-06-18 14:09:58
Flight Rules vfr VFR
Wind230° at 04 kt
W.Decomp.*RWY 19: 2.8 kt HW 2.9 kt RCW
Visibility9999 m
Phenomena:Vicinity thunderstorm
Clouds:Scattered 022 Hf
Scattered 120 Hf
CeilingNone
Temp22°C (ISA +10)
Dew Point22°C (100% RH)
QNH1020 hPa
Density Alt2,533 ft
Elevation1,299 ft
Report Wrong Elevation
Raw Report
METAR KUKF 181340Z AUTO 23004KT 10SM VCTS SCT022 SCT120 22/22 A3011
RMK AO2 LTG DSNT N=

Extra information for KUKF:More info

Metar Taf Metar & Taf Last 4 Metars F.Rules Stats Wind Profile Meteogram Temp Stats Airport Information Weather charts Add Link Nearby VenuesMetar ALERT Operation Metar Decoded Social comments

AIRNAV info for KUKF